sensor_id;sensor_type;location;lat;lon;timestamp;P1;durP1;ratioP1;P2;durP2;ratioP2
30948;SDS011;17637;51.984;21.208;2023-09-07T00:01:42;16.23;;;11.68;;
30948;SDS011;17637;51.984;21.208;2023-09-07T00:04:15;15.60;;;11.68;;
30948;SDS011;17637;51.984;21.208;2023-09-07T00:06:47;15.70;;;11.25;;
30948;SDS011;17637;51.984;21.208;2023-09-07T00:09:21;15.43;;;10.80;;
30948;SDS011;17637;51.984;21.208;2023-09-07T00:11:53;12.95;;;10.82;;
30948;SDS011;17637;51.984;21.208;2023-09-07T00:14:25;15.50;;;11.70;;
30948;SDS011;17637;51.984;21.208;2023-09-07T00:16:57;18.08;;;12.02;;
30948;SDS011;17637;51.984;21.208;2023-09-07T00:19:30;13.75;;;10.88;;
30948;SDS011;17637;51.984;21.208;2023-09-07T00:22:03;15.88;;;12.25;;
30948;SDS011;17637;51.984;21.208;2023-09-07T00:24:35;20.02;;;14.52;;
30948;SDS011;17637;51.984;21.208;2023-09-07T00:27:07;19.17;;;14.30;;
30948;SDS011;17637;51.984;21.208;2023-09-07T00:29:39;16.35;;;12.77;;
30948;SDS011;17637;51.984;21.208;2023-09-07T00:32:11;17.77;;;13.98;;
30948;SDS011;17637;51.984;21.208;2023-09-07T00:34:43;21.60;;;15.57;;
30948;SDS011;17637;51.984;21.208;2023-09-07T00:37:15;18.75;;;13.30;;
30948;SDS011;17637;51.984;21.208;2023-09-07T00:39:47;17.50;;;13.80;;
30948;SDS011;17637;51.984;21.208;2023-09-07T00:42:19;18.17;;;12.95;;
30948;SDS011;17637;51.984;21.208;2023-09-07T00:44:51;20.48;;;13.55;;
30948;SDS011;17637;51.984;21.208;2023-09-07T00:47:23;19.75;;;14.45;;
30948;SDS011;17637;51.984;21.208;2023-09-07T00:49:55;21.00;;;14.63;;
30948;SDS011;17637;51.984;21.208;2023-09-07T00:52:27;17.85;;;13.60;;
30948;SDS011;17637;51.984;21.208;2023-09-07T00:55:02;16.60;;;12.93;;
30948;SDS011;17637;51.984;21.208;2023-09-07T00:57:37;19.10;;;15.02;;
30948;SDS011;17637;51.984;21.208;2023-09-07T01:00:11;20.45;;;12.77;;
30948;SDS011;17637;51.984;21.208;2023-09-07T01:02:43;17.13;;;13.07;;
30948;SDS011;17637;51.984;21.208;2023-09-07T01:05:16;17.73;;;12.52;;
30948;SDS011;17637;51.984;21.208;2023-09-07T01:07:51;19.05;;;13.40;;
30948;SDS011;17637;51.984;21.208;2023-09-07T01:10:28;17.38;;;11.77;;
30948;SDS011;17637;51.984;21.208;2023-09-07T01:13:00;14.40;;;11.82;;
30948;SDS011;17637;51.984;21.208;2023-09-07T01:15:32;17.98;;;13.63;;
30948;SDS011;17637;51.984;21.208;2023-09-07T01:18:04;16.75;;;13.30;;
30948;SDS011;17637;51.984;21.208;2023-09-07T01:20:58;17.95;;;14.07;;
30948;SDS011;17637;51.984;21.208;2023-09-07T01:23:39;20.08;;;14.25;;
30948;SDS011;17637;51.984;21.208;2023-09-07T01:26:12;19.88;;;13.18;;
30948;SDS011;17637;51.984;21.208;2023-09-07T01:28:44;16.30;;;12.88;;
30948;SDS011;17637;51.984;21.208;2023-09-07T01:31:16;15.18;;;12.30;;
30948;SDS011;17637;51.984;21.208;2023-09-07T01:33:49;20.75;;;13.63;;
30948;SDS011;17637;51.984;21.208;2023-09-07T01:36:20;19.50;;;13.00;;
30948;SDS011;17637;51.984;21.208;2023-09-07T01:38:52;15.85;;;13.18;;
30948;SDS011;17637;51.984;21.208;2023-09-07T01:41:24;17.33;;;12.93;;
30948;SDS011;17637;51.984;21.208;2023-09-07T01:43:57;17.23;;;11.75;;
30948;SDS011;17637;51.984;21.208;2023-09-07T01:46:29;15.88;;;12.77;;
30948;SDS011;17637;51.984;21.208;2023-09-07T01:49:01;17.15;;;12.18;;
30948;SDS011;17637;51.984;21.208;2023-09-07T01:51:33;17.45;;;12.38;;
30948;SDS011;17637;51.984;21.208;2023-09-07T01:54:06;16.35;;;12.45;;
30948;SDS011;17637;51.984;21.208;2023-09-07T01:56:38;14.10;;;11.05;;
30948;SDS011;17637;51.984;21.208;2023-09-07T01:59:12;17.23;;;12.38;;
30948;SDS011;17637;51.984;21.208;2023-09-07T02:01:44;15.02;;;12.32;;
30948;SDS011;17637;51.984;21.208;2023-09-07T02:04:16;18.02;;;12.85;;
30948;SDS011;17637;51.984;21.208;2023-09-07T02:06:48;17.88;;;12.43;;
30948;SDS011;17637;51.984;21.208;2023-09-07T02:09:20;19.58;;;14.23;;
30948;SDS011;17637;51.984;21.208;2023-09-07T02:11:52;17.85;;;13.25;;
30948;SDS011;17637;51.984;21.208;2023-09-07T02:14:24;18.00;;;12.20;;
30948;SDS011;17637;51.984;21.208;2023-09-07T02:16:56;15.00;;;12.10;;
30948;SDS011;17637;51.984;21.208;2023-09-07T02:19:28;13.80;;;11.13;;
30948;SDS011;17637;51.984;21.208;2023-09-07T02:22:00;16.50;;;13.05;;
30948;SDS011;17637;51.984;21.208;2023-09-07T02:24:31;14.85;;;11.52;;
30948;SDS011;17637;51.984;21.208;2023-09-07T02:27:03;18.27;;;12.98;;
30948;SDS011;17637;51.984;21.208;2023-09-07T02:29:35;16.85;;;13.38;;
30948;SDS011;17637;51.984;21.208;2023-09-07T02:32:08;15.02;;;11.80;;
30948;SDS011;17637;51.984;21.208;2023-09-07T02:34:40;16.83;;;12.85;;
30948;SDS011;17637;51.984;21.208;2023-09-07T02:37:13;15.88;;;11.80;;
30948;SDS011;17637;51.984;21.208;2023-09-07T02:39:47;17.67;;;12.98;;
30948;SDS011;17637;51.984;21.208;2023-09-07T02:42:19;17.13;;;13.38;;
30948;SDS011;17637;51.984;21.208;2023-09-07T02:44:51;15.60;;;12.88;;
30948;SDS011;17637;51.984;21.208;2023-09-07T02:47:23;20.67;;;16.15;;
30948;SDS011;17637;51.984;21.208;2023-09-07T02:49:55;24.10;;;19.67;;
30948;SDS011;17637;51.984;21.208;2023-09-07T02:52:27;19.98;;;15.25;;
30948;SDS011;17637;51.984;21.208;2023-09-07T02:54:58;17.92;;;13.20;;
30948;SDS011;17637;51.984;21.208;2023-09-07T02:57:30;16.55;;;12.48;;
30948;SDS011;17637;51.984;21.208;2023-09-07T03:00:02;17.25;;;12.57;;
30948;SDS011;17637;51.984;21.208;2023-09-07T03:02:43;18.65;;;13.50;;
30948;SDS011;17637;51.984;21.208;2023-09-07T03:05:16;15.23;;;12.27;;
30948;SDS011;17637;51.984;21.208;2023-09-07T03:07:48;16.55;;;13.10;;
30948;SDS011;17637;51.984;21.208;2023-09-07T03:10:20;18.38;;;11.57;;
30948;SDS011;17637;51.984;21.208;2023-09-07T03:12:52;20.60;;;13.27;;
30948;SDS011;17637;51.984;21.208;2023-09-07T03:15:26;15.70;;;12.15;;
30948;SDS011;17637;51.984;21.208;2023-09-07T03:17:58;16.13;;;12.63;;
30948;SDS011;17637;51.984;21.208;2023-09-07T03:20:32;14.45;;;12.10;;
30948;SDS011;17637;51.984;21.208;2023-09-07T03:23:05;16.40;;;12.88;;
30948;SDS011;17637;51.984;21.208;2023-09-07T03:25:38;17.83;;;14.80;;
30948;SDS011;17637;51.984;21.208;2023-09-07T03:28:09;21.48;;;15.52;;
30948;SDS011;17637;51.984;21.208;2023-09-07T03:30:41;24.05;;;18.27;;
30948;SDS011;17637;51.984;21.208;2023-09-07T03:33:13;30.70;;;20.50;;
30948;SDS011;17637;51.984;21.208;2023-09-07T03:35:45;22.65;;;17.10;;
30948;SDS011;17637;51.984;21.208;2023-09-07T03:38:17;23.42;;;16.83;;
30948;SDS011;17637;51.984;21.208;2023-09-07T03:40:49;23.05;;;15.20;;
30948;SDS011;17637;51.984;21.208;2023-09-07T03:43:22;20.00;;;16.77;;
30948;SDS011;17637;51.984;21.208;2023-09-07T03:45:54;21.30;;;15.05;;
30948;SDS011;17637;51.984;21.208;2023-09-07T03:48:28;18.65;;;15.25;;
30948;SDS011;17637;51.984;21.208;2023-09-07T03:51:00;19.42;;;13.45;;
30948;SDS011;17637;51.984;21.208;2023-09-07T03:53:37;21.27;;;16.55;;
30948;SDS011;17637;51.984;21.208;2023-09-07T03:56:08;17.95;;;14.65;;
30948;SDS011;17637;51.984;21.208;2023-09-07T03:58:40;18.55;;;13.20;;
30948;SDS011;17637;51.984;21.208;2023-09-07T04:01:13;21.42;;;15.05;;
30948;SDS011;17637;51.984;21.208;2023-09-07T04:03:45;20.00;;;14.05;;
30948;SDS011;17637;51.984;21.208;2023-09-07T04:06:17;18.90;;;13.90;;
30948;SDS011;17637;51.984;21.208;2023-09-07T04:08:49;20.65;;;14.98;;
30948;SDS011;17637;51.984;21.208;2023-09-07T04:11:21;16.83;;;13.57;;
30948;SDS011;17637;51.984;21.208;2023-09-07T04:13:53;22.52;;;16.23;;
30948;SDS011;17637;51.984;21.208;2023-09-07T04:16:25;22.55;;;16.27;;
30948;SDS011;17637;51.984;21.208;2023-09-07T04:18:57;28.48;;;20.00;;
30948;SDS011;17637;51.984;21.208;2023-09-07T04:21:29;30.05;;;21.90;;
30948;SDS011;17637;51.984;21.208;2023-09-07T04:24:01;29.95;;;20.23;;
30948;SDS011;17637;51.984;21.208;2023-09-07T04:26:33;25.67;;;18.08;;
30948;SDS011;17637;51.984;21.208;2023-09-07T04:29:06;25.77;;;18.10;;
30948;SDS011;17637;51.984;21.208;2023-09-07T04:31:39;22.38;;;16.30;;
30948;SDS011;17637;51.984;21.208;2023-09-07T04:34:11;21.15;;;16.38;;
30948;SDS011;17637;51.984;21.208;2023-09-07T04:36:42;21.63;;;15.52;;
30948;SDS011;17637;51.984;21.208;2023-09-07T04:39:14;21.55;;;14.73;;
30948;SDS011;17637;51.984;21.208;2023-09-07T04:41:46;18.70;;;13.80;;
30948;SDS011;17637;51.984;21.208;2023-09-07T04:44:18;18.15;;;13.73;;
30948;SDS011;17637;51.984;21.208;2023-09-07T04:46:50;18.17;;;14.52;;
30948;SDS011;17637;51.984;21.208;2023-09-07T04:49:24;19.65;;;14.90;;
30948;SDS011;17637;51.984;21.208;2023-09-07T04:51:57;16.83;;;14.15;;
30948;SDS011;17637;51.984;21.208;2023-09-07T04:54:29;20.15;;;14.98;;
30948;SDS011;17637;51.984;21.208;2023-09-07T04:57:01;18.63;;;14.68;;
30948;SDS011;17637;51.984;21.208;2023-09-07T04:59:33;17.40;;;13.15;;
30948;SDS011;17637;51.984;21.208;2023-09-07T05:02:05;19.92;;;14.25;;
30948;SDS011;17637;51.984;21.208;2023-09-07T05:04:37;21.48;;;14.80;;
30948;SDS011;17637;51.984;21.208;2023-09-07T05:07:10;18.63;;;13.90;;
30948;SDS011;17637;51.984;21.208;2023-09-07T05:09:42;21.67;;;13.98;;
30948;SDS011;17637;51.984;21.208;2023-09-07T05:12:14;19.65;;;14.32;;
30948;SDS011;17637;51.984;21.208;2023-09-07T05:14:50;18.67;;;14.30;;
30948;SDS011;17637;51.984;21.208;2023-09-07T05:17:22;22.88;;;14.57;;
30948;SDS011;17637;51.984;21.208;2023-09-07T05:19:53;25.38;;;16.30;;
30948;SDS011;17637;51.984;21.208;2023-09-07T05:22:25;30.77;;;17.73;;
30948;SDS011;17637;51.984;21.208;2023-09-07T05:24:58;24.67;;;16.52;;
30948;SDS011;17637;51.984;21.208;2023-09-07T05:27:33;27.55;;;17.27;;
30948;SDS011;17637;51.984;21.208;2023-09-07T05:30:06;26.80;;;16.95;;
30948;SDS011;17637;51.984;21.208;2023-09-07T05:32:39;28.05;;;17.52;;
30948;SDS011;17637;51.984;21.208;2023-09-07T05:35:13;24.55;;;16.95;;
30948;SDS011;17637;51.984;21.208;2023-09-07T05:37:47;24.13;;;16.73;;
30948;SDS011;17637;51.984;21.208;2023-09-07T05:40:20;23.27;;;14.95;;
30948;SDS011;17637;51.984;21.208;2023-09-07T05:42:53;21.33;;;15.70;;
30948;SDS011;17637;51.984;21.208;2023-09-07T05:45:25;22.92;;;15.15;;
30948;SDS011;17637;51.984;21.208;2023-09-07T05:47:56;23.08;;;15.93;;
30948;SDS011;17637;51.984;21.208;2023-09-07T05:50:29;21.58;;;15.48;;
30948;SDS011;17637;51.984;21.208;2023-09-07T05:53:01;26.83;;;18.02;;
30948;SDS011;17637;51.984;21.208;2023-09-07T05:55:34;23.95;;;17.30;;
30948;SDS011;17637;51.984;21.208;2023-09-07T05:58:07;26.38;;;17.75;;
30948;SDS011;17637;51.984;21.208;2023-09-07T06:00:39;23.00;;;15.77;;
30948;SDS011;17637;51.984;21.208;2023-09-07T06:03:12;20.17;;;14.30;;
30948;SDS011;17637;51.984;21.208;2023-09-07T06:05:44;20.92;;;15.55;;
30948;SDS011;17637;51.984;21.208;2023-09-07T06:08:16;20.25;;;15.30;;
30948;SDS011;17637;51.984;21.208;2023-09-07T06:10:48;27.02;;;17.33;;
30948;SDS011;17637;51.984;21.208;2023-09-07T06:13:20;18.30;;;14.90;;
30948;SDS011;17637;51.984;21.208;2023-09-07T06:15:52;19.67;;;15.20;;
30948;SDS011;17637;51.984;21.208;2023-09-07T06:18:24;21.42;;;17.63;;
30948;SDS011;17637;51.984;21.208;2023-09-07T06:20:56;19.40;;;15.45;;
30948;SDS011;17637;51.984;21.208;2023-09-07T06:23:28;21.80;;;15.77;;
30948;SDS011;17637;51.984;21.208;2023-09-07T06:26:00;21.67;;;14.55;;
30948;SDS011;17637;51.984;21.208;2023-09-07T06:28:32;18.40;;;15.10;;
30948;SDS011;17637;51.984;21.208;2023-09-07T06:31:05;20.67;;;14.73;;
30948;SDS011;17637;51.984;21.208;2023-09-07T06:33:37;22.40;;;15.73;;
30948;SDS011;17637;51.984;21.208;2023-09-07T06:36:09;24.52;;;16.27;;
30948;SDS011;17637;51.984;21.208;2023-09-07T06:38:41;22.98;;;16.85;;
30948;SDS011;17637;51.984;21.208;2023-09-07T06:41:13;21.17;;;16.55;;
30948;SDS011;17637;51.984;21.208;2023-09-07T06:43:45;19.60;;;14.50;;
30948;SDS011;17637;51.984;21.208;2023-09-07T06:46:17;22.10;;;14.02;;
30948;SDS011;17637;51.984;21.208;2023-09-07T06:48:49;23.20;;;13.90;;
30948;SDS011;17637;51.984;21.208;2023-09-07T06:51:21;20.75;;;15.05;;
30948;SDS011;17637;51.984;21.208;2023-09-07T06:53:53;19.75;;;15.50;;
30948;SDS011;17637;51.984;21.208;2023-09-07T06:56:29;20.23;;;15.35;;
30948;SDS011;17637;51.984;21.208;2023-09-07T06:59:02;17.25;;;13.55;;
30948;SDS011;17637;51.984;21.208;2023-09-07T07:01:34;18.35;;;13.10;;
30948;SDS011;17637;51.984;21.208;2023-09-07T07:04:07;17.40;;;12.88;;
30948;SDS011;17637;51.984;21.208;2023-09-07T07:06:40;16.75;;;11.02;;
30948;SDS011;17637;51.984;21.208;2023-09-07T07:09:12;17.90;;;12.02;;
30948;SDS011;17637;51.984;21.208;2023-09-07T07:11:45;16.63;;;12.57;;
30948;SDS011;17637;51.984;21.208;2023-09-07T07:14:17;18.38;;;12.40;;
30948;SDS011;17637;51.984;21.208;2023-09-07T07:16:49;17.33;;;12.75;;
30948;SDS011;17637;51.984;21.208;2023-09-07T07:19:21;17.45;;;11.88;;
30948;SDS011;17637;51.984;21.208;2023-09-07T07:21:54;20.25;;;13.52;;
30948;SDS011;17637;51.984;21.208;2023-09-07T07:24:26;20.77;;;11.90;;
30948;SDS011;17637;51.984;21.208;2023-09-07T07:26:58;18.33;;;11.75;;
30948;SDS011;17637;51.984;21.208;2023-09-07T07:29:30;17.35;;;11.20;;
30948;SDS011;17637;51.984;21.208;2023-09-07T07:32:04;16.88;;;11.55;;
30948;SDS011;17637;51.984;21.208;2023-09-07T07:34:36;16.85;;;12.25;;
30948;SDS011;17637;51.984;21.208;2023-09-07T07:37:08;12.27;;;10.07;;
30948;SDS011;17637;51.984;21.208;2023-09-07T07:39:40;19.85;;;11.82;;
30948;SDS011;17637;51.984;21.208;2023-09-07T07:42:11;13.80;;;10.25;;
30948;SDS011;17637;51.984;21.208;2023-09-07T07:44:44;13.00;;;10.48;;
30948;SDS011;17637;51.984;21.208;2023-09-07T07:47:16;14.23;;;10.25;;
30948;SDS011;17637;51.984;21.208;2023-09-07T07:49:48;12.77;;;10.00;;
30948;SDS011;17637;51.984;21.208;2023-09-07T07:52:20;16.83;;;10.70;;
30948;SDS011;17637;51.984;21.208;2023-09-07T07:54:53;13.07;;;9.07;;
30948;SDS011;17637;51.984;21.208;2023-09-07T07:57:25;11.27;;;7.68;;
30948;SDS011;17637;51.984;21.208;2023-09-07T07:59:57;11.18;;;7.60;;
30948;SDS011;17637;51.984;21.208;2023-09-07T08:02:30;11.02;;;8.52;;
30948;SDS011;17637;51.984;21.208;2023-09-07T08:05:02;10.85;;;8.35;;
30948;SDS011;17637;51.984;21.208;2023-09-07T08:07:34;10.48;;;7.35;;
30948;SDS011;17637;51.984;21.208;2023-09-07T08:10:06;14.43;;;8.20;;
30948;SDS011;17637;51.984;21.208;2023-09-07T08:12:39;13.90;;;8.32;;
30948;SDS011;17637;51.984;21.208;2023-09-07T08:15:11;9.20;;;7.30;;
30948;SDS011;17637;51.984;21.208;2023-09-07T08:17:43;13.13;;;9.27;;
30948;SDS011;17637;51.984;21.208;2023-09-07T08:20:15;12.43;;;7.75;;
30948;SDS011;17637;51.984;21.208;2023-09-07T08:22:47;13.60;;;8.13;;
30948;SDS011;17637;51.984;21.208;2023-09-07T08:25:20;14.70;;;8.07;;
30948;SDS011;17637;51.984;21.208;2023-09-07T08:27:52;10.77;;;6.85;;
30948;SDS011;17637;51.984;21.208;2023-09-07T08:30:29;10.52;;;7.90;;
30948;SDS011;17637;51.984;21.208;2023-09-07T08:33:01;12.48;;;8.02;;
30948;SDS011;17637;51.984;21.208;2023-09-07T08:35:34;12.30;;;8.32;;
30948;SDS011;17637;51.984;21.208;2023-09-07T08:38:07;10.35;;;7.70;;
30948;SDS011;17637;51.984;21.208;2023-09-07T08:40:39;10.40;;;8.02;;
30948;SDS011;17637;51.984;21.208;2023-09-07T08:43:11;12.40;;;7.30;;
30948;SDS011;17637;51.984;21.208;2023-09-07T08:45:51;9.85;;;7.22;;
30948;SDS011;17637;51.984;21.208;2023-09-07T08:48:31;9.23;;;6.72;;
30948;SDS011;17637;51.984;21.208;2023-09-07T08:51:04;13.25;;;7.97;;
30948;SDS011;17637;51.984;21.208;2023-09-07T08:53:38;9.48;;;7.15;;
30948;SDS011;17637;51.984;21.208;2023-09-07T08:56:14;10.50;;;7.45;;
30948;SDS011;17637;51.984;21.208;2023-09-07T08:58:48;11.80;;;7.60;;
30948;SDS011;17637;51.984;21.208;2023-09-07T09:01:23;10.88;;;6.53;;
30948;SDS011;17637;51.984;21.208;2023-09-07T09:03:55;10.20;;;7.03;;
30948;SDS011;17637;51.984;21.208;2023-09-07T09:06:27;7.90;;;6.60;;
30948;SDS011;17637;51.984;21.208;2023-09-07T09:08:59;10.18;;;6.70;;
30948;SDS011;17637;51.984;21.208;2023-09-07T09:11:31;11.30;;;6.80;;
30948;SDS011;17637;51.984;21.208;2023-09-07T09:14:04;9.25;;;6.07;;
30948;SDS011;17637;51.984;21.208;2023-09-07T09:16:37;8.23;;;5.53;;
30948;SDS011;17637;51.984;21.208;2023-09-07T09:19:08;9.40;;;6.43;;
30948;SDS011;17637;51.984;21.208;2023-09-07T09:21:40;10.55;;;6.88;;
30948;SDS011;17637;51.984;21.208;2023-09-07T09:24:12;11.15;;;6.90;;
30948;SDS011;17637;51.984;21.208;2023-09-07T09:26:46;10.35;;;6.97;;
30948;SDS011;17637;51.984;21.208;2023-09-07T09:29:21;9.65;;;6.75;;
30948;SDS011;17637;51.984;21.208;2023-09-07T09:31:54;10.48;;;6.32;;
30948;SDS011;17637;51.984;21.208;2023-09-07T09:34:30;10.25;;;5.70;;
30948;SDS011;17637;51.984;21.208;2023-09-07T09:37:03;9.38;;;5.90;;
30948;SDS011;17637;51.984;21.208;2023-09-07T09:39:36;8.35;;;6.22;;
30948;SDS011;17637;51.984;21.208;2023-09-07T09:42:08;7.57;;;5.43;;
30948;SDS011;17637;51.984;21.208;2023-09-07T09:44:40;7.13;;;5.95;;
30948;SDS011;17637;51.984;21.208;2023-09-07T09:47:14;10.63;;;6.00;;
30948;SDS011;17637;51.984;21.208;2023-09-07T09:49:47;7.95;;;5.32;;
30948;SDS011;17637;51.984;21.208;2023-09-07T09:52:20;8.60;;;5.53;;
30948;SDS011;17637;51.984;21.208;2023-09-07T09:54:53;8.05;;;5.65;;
30948;SDS011;17637;51.984;21.208;2023-09-07T09:57:27;8.10;;;5.78;;
30948;SDS011;17637;51.984;21.208;2023-09-07T10:00:02;8.35;;;4.38;;
30948;SDS011;17637;51.984;21.208;2023-09-07T10:03:37;6.55;;;4.75;;
30948;SDS011;17637;51.984;21.208;2023-09-07T10:05:55;7.20;;;5.05;;
30948;SDS011;17637;51.984;21.208;2023-09-07T10:08:28;5.65;;;4.20;;
30948;SDS011;17637;51.984;21.208;2023-09-07T10:11:01;8.40;;;5.32;;
30948;SDS011;17637;51.984;21.208;2023-09-07T10:13:40;7.32;;;5.40;;
30948;SDS011;17637;51.984;21.208;2023-09-07T10:16:12;9.05;;;6.53;;
30948;SDS011;17637;51.984;21.208;2023-09-07T10:18:44;12.38;;;6.30;;
30948;SDS011;17637;51.984;21.208;2023-09-07T10:21:16;7.85;;;5.82;;
30948;SDS011;17637;51.984;21.208;2023-09-07T10:23:47;8.27;;;5.20;;
30948;SDS011;17637;51.984;21.208;2023-09-07T10:26:23;8.60;;;5.95;;
30948;SDS011;17637;51.984;21.208;2023-09-07T10:28:58;8.23;;;5.15;;
30948;SDS011;17637;51.984;21.208;2023-09-07T10:31:32;11.02;;;5.60;;
30948;SDS011;17637;51.984;21.208;2023-09-07T10:34:34;8.27;;;4.93;;
30948;SDS011;17637;51.984;21.208;2023-09-07T10:37:11;6.20;;;5.22;;
30948;SDS011;17637;51.984;21.208;2023-09-07T10:39:44;5.00;;;4.00;;
30948;SDS011;17637;51.984;21.208;2023-09-07T10:42:21;6.07;;;4.13;;
30948;SDS011;17637;51.984;21.208;2023-09-07T10:45:07;6.32;;;4.20;;
30948;SDS011;17637;51.984;21.208;2023-09-07T10:47:40;6.03;;;3.95;;
30948;SDS011;17637;51.984;21.208;2023-09-07T10:50:14;6.13;;;3.60;;
30948;SDS011;17637;51.984;21.208;2023-09-07T10:52:46;8.75;;;4.45;;
30948;SDS011;17637;51.984;21.208;2023-09-07T10:55:18;4.22;;;3.22;;
30948;SDS011;17637;51.984;21.208;2023-09-07T10:57:50;6.85;;;4.22;;
30948;SDS011;17637;51.984;21.208;2023-09-07T11:00:22;6.32;;;3.75;;
30948;SDS011;17637;51.984;21.208;2023-09-07T11:02:54;3.72;;;3.33;;
30948;SDS011;17637;51.984;21.208;2023-09-07T11:05:26;7.35;;;3.53;;
30948;SDS011;17637;51.984;21.208;2023-09-07T11:07:58;3.53;;;3.00;;
30948;SDS011;17637;51.984;21.208;2023-09-07T11:10:36;5.20;;;3.33;;
30948;SDS011;17637;51.984;21.208;2023-09-07T11:13:09;5.35;;;3.20;;
30948;SDS011;17637;51.984;21.208;2023-09-07T11:15:41;5.88;;;3.45;;
30948;SDS011;17637;51.984;21.208;2023-09-07T11:18:18;5.93;;;4.03;;
30948;SDS011;17637;51.984;21.208;2023-09-07T11:20:51;9.30;;;4.57;;
30948;SDS011;17637;51.984;21.208;2023-09-07T11:23:24;4.95;;;4.25;;
30948;SDS011;17637;51.984;21.208;2023-09-07T11:25:56;5.80;;;4.30;;
30948;SDS011;17637;51.984;21.208;2023-09-07T11:28:29;7.18;;;4.70;;
30948;SDS011;17637;51.984;21.208;2023-09-07T11:31:01;8.88;;;4.82;;
30948;SDS011;17637;51.984;21.208;2023-09-07T11:33:33;5.72;;;4.30;;
30948;SDS011;17637;51.984;21.208;2023-09-07T11:36:05;9.68;;;5.30;;
30948;SDS011;17637;51.984;21.208;2023-09-07T11:38:37;7.05;;;5.07;;
30948;SDS011;17637;51.984;21.208;2023-09-07T11:41:09;9.23;;;5.13;;
30948;SDS011;17637;51.984;21.208;2023-09-07T11:43:41;5.45;;;4.40;;
30948;SDS011;17637;51.984;21.208;2023-09-07T11:46:13;12.68;;;7.75;;
30948;SDS011;17637;51.984;21.208;2023-09-07T11:48:45;7.80;;;5.07;;
30948;SDS011;17637;51.984;21.208;2023-09-07T11:51:18;4.88;;;4.15;;
30948;SDS011;17637;51.984;21.208;2023-09-07T11:53:49;7.05;;;4.43;;
30948;SDS011;17637;51.984;21.208;2023-09-07T11:56:21;5.40;;;4.57;;
30948;SDS011;17637;51.984;21.208;2023-09-07T11:58:53;7.47;;;4.70;;
30948;SDS011;17637;51.984;21.208;2023-09-07T12:01:26;6.32;;;4.90;;
30948;SDS011;17637;51.984;21.208;2023-09-07T12:03:59;5.63;;;3.92;;
30948;SDS011;17637;51.984;21.208;2023-09-07T12:06:31;6.60;;;4.50;;
30948;SDS011;17637;51.984;21.208;2023-09-07T12:09:04;6.10;;;3.83;;
30948;SDS011;17637;51.984;21.208;2023-09-07T12:11:43;6.63;;;4.10;;
30948;SDS011;17637;51.984;21.208;2023-09-07T12:14:15;5.53;;;3.80;;
30948;SDS011;17637;51.984;21.208;2023-09-07T12:16:47;6.80;;;3.95;;
30948;SDS011;17637;51.984;21.208;2023-09-07T12:19:19;5.53;;;4.30;;
30948;SDS011;17637;51.984;21.208;2023-09-07T12:21:51;4.97;;;4.10;;
30948;SDS011;17637;51.984;21.208;2023-09-07T12:24:23;6.07;;;4.00;;
30948;SDS011;17637;51.984;21.208;2023-09-07T12:26:55;4.07;;;3.67;;
30948;SDS011;17637;51.984;21.208;2023-09-07T12:29:27;5.10;;;4.00;;
30948;SDS011;17637;51.984;21.208;2023-09-07T12:31:59;6.30;;;3.60;;
30948;SDS011;17637;51.984;21.208;2023-09-07T12:34:31;7.35;;;3.88;;
30948;SDS011;17637;51.984;21.208;2023-09-07T12:37:03;6.28;;;3.78;;
30948;SDS011;17637;51.984;21.208;2023-09-07T12:39:35;6.22;;;3.42;;
30948;SDS011;17637;51.984;21.208;2023-09-07T12:42:07;3.85;;;3.38;;
30948;SDS011;17637;51.984;21.208;2023-09-07T12:44:39;5.40;;;3.40;;
30948;SDS011;17637;51.984;21.208;2023-09-07T12:47:11;6.63;;;3.80;;
30948;SDS011;17637;51.984;21.208;2023-09-07T12:49:43;4.30;;;3.90;;
30948;SDS011;17637;51.984;21.208;2023-09-07T12:52:15;4.07;;;3.47;;
30948;SDS011;17637;51.984;21.208;2023-09-07T12:54:47;3.63;;;3.10;;
30948;SDS011;17637;51.984;21.208;2023-09-07T12:57:20;5.60;;;3.53;;
30948;SDS011;17637;51.984;21.208;2023-09-07T12:59:51;5.28;;;3.83;;
30948;SDS011;17637;51.984;21.208;2023-09-07T13:02:23;4.10;;;3.58;;
30948;SDS011;17637;51.984;21.208;2023-09-07T13:04:56;4.00;;;3.60;;
30948;SDS011;17637;51.984;21.208;2023-09-07T13:07:27;5.32;;;3.58;;
30948;SDS011;17637;51.984;21.208;2023-09-07T13:10:00;4.05;;;3.40;;
30948;SDS011;17637;51.984;21.208;2023-09-07T13:12:35;5.75;;;3.75;;
30948;SDS011;17637;51.984;21.208;2023-09-07T13:15:07;3.95;;;3.55;;
30948;SDS011;17637;51.984;21.208;2023-09-07T13:17:40;5.90;;;3.92;;
30948;SDS011;17637;51.984;21.208;2023-09-07T13:20:12;5.75;;;3.63;;
30948;SDS011;17637;51.984;21.208;2023-09-07T13:22:45;4.25;;;3.30;;
30948;SDS011;17637;51.984;21.208;2023-09-07T13:25:18;4.18;;;2.88;;
30948;SDS011;17637;51.984;21.208;2023-09-07T13:27:49;6.60;;;3.50;;
30948;SDS011;17637;51.984;21.208;2023-09-07T13:30:21;6.05;;;3.47;;
30948;SDS011;17637;51.984;21.208;2023-09-07T13:32:53;6.60;;;3.20;;
30948;SDS011;17637;51.984;21.208;2023-09-07T13:35:25;5.38;;;3.30;;
30948;SDS011;17637;51.984;21.208;2023-09-07T13:37:57;5.93;;;3.47;;
30948;SDS011;17637;51.984;21.208;2023-09-07T13:40:29;4.78;;;3.00;;
30948;SDS011;17637;51.984;21.208;2023-09-07T13:43:01;5.93;;;3.15;;
30948;SDS011;17637;51.984;21.208;2023-09-07T13:45:33;6.60;;;3.05;;
30948;SDS011;17637;51.984;21.208;2023-09-07T13:48:05;7.38;;;3.63;;
30948;SDS011;17637;51.984;21.208;2023-09-07T13:50:37;4.10;;;3.20;;
30948;SDS011;17637;51.984;21.208;2023-09-07T13:53:09;3.40;;;2.88;;
30948;SDS011;17637;51.984;21.208;2023-09-07T13:55:42;5.03;;;3.40;;
30948;SDS011;17637;51.984;21.208;2023-09-07T13:58:16;4.13;;;3.13;;
30948;SDS011;17637;51.984;21.208;2023-09-07T14:00:48;5.30;;;3.50;;
30948;SDS011;17637;51.984;21.208;2023-09-07T14:03:20;6.07;;;3.45;;
30948;SDS011;17637;51.984;21.208;2023-09-07T14:05:51;5.50;;;3.10;;
30948;SDS011;17637;51.984;21.208;2023-09-07T14:08:23;4.50;;;2.80;;
30948;SDS011;17637;51.984;21.208;2023-09-07T14:10:55;5.35;;;3.17;;
30948;SDS011;17637;51.984;21.208;2023-09-07T14:13:31;5.50;;;3.72;;
30948;SDS011;17637;51.984;21.208;2023-09-07T14:16:06;3.95;;;3.13;;
30948;SDS011;17637;51.984;21.208;2023-09-07T14:18:38;4.82;;;3.30;;
30948;SDS011;17637;51.984;21.208;2023-09-07T14:21:10;3.85;;;2.85;;
30948;SDS011;17637;51.984;21.208;2023-09-07T14:23:44;4.93;;;3.33;;
30948;SDS011;17637;51.984;21.208;2023-09-07T14:26:16;7.22;;;3.45;;
30948;SDS011;17637;51.984;21.208;2023-09-07T14:28:48;3.92;;;3.15;;
30948;SDS011;17637;51.984;21.208;2023-09-07T14:31:19;7.55;;;2.83;;
30948;SDS011;17637;51.984;21.208;2023-09-07T14:33:51;5.03;;;3.28;;
30948;SDS011;17637;51.984;21.208;2023-09-07T14:36:23;3.90;;;3.35;;
30948;SDS011;17637;51.984;21.208;2023-09-07T14:38:55;4.25;;;3.47;;
30948;SDS011;17637;51.984;21.208;2023-09-07T14:41:27;3.88;;;2.90;;
30948;SDS011;17637;51.984;21.208;2023-09-07T14:43:59;5.97;;;3.00;;
30948;SDS011;17637;51.984;21.208;2023-09-07T14:46:31;5.68;;;3.28;;
30948;SDS011;17637;51.984;21.208;2023-09-07T14:49:04;3.30;;;3.00;;
30948;SDS011;17637;51.984;21.208;2023-09-07T14:51:35;3.75;;;3.33;;